createdAt,value
2023-02-01T05:41:31.717Z,2.33
2023-02-01T05:44:34.439Z,2.12
2023-02-01T05:47:37.178Z,1.65
2023-02-01T05:50:40.780Z,1.60
2023-02-01T05:53:43.825Z,1.95
2023-02-01T05:56:47.751Z,1.90
2023-02-01T05:59:50.858Z,2.08
2023-02-01T06:02:53.941Z,2.30
2023-02-01T06:05:56.763Z,1.87
2023-02-01T06:08:59.721Z,1.90
2023-02-01T06:12:02.938Z,2.05
2023-02-01T06:15:06.720Z,1.90
2023-02-01T06:18:09.521Z,1.90
2023-02-01T06:21:12.182Z,2.00
2023-02-01T06:24:15.399Z,1.70
2023-02-01T06:27:18.563Z,2.00
2023-02-01T06:30:21.544Z,1.75
2023-02-01T06:33:25.190Z,3.00
2023-02-01T06:36:28.091Z,2.10
2023-02-01T06:39:30.879Z,2.65
2023-02-01T06:42:33.594Z,2.70
2023-02-01T06:45:36.247Z,2.05
2023-02-01T06:48:38.814Z,2.97
2023-02-01T06:51:41.412Z,2.28
2023-02-01T06:54:45.666Z,2.30
2023-02-01T06:57:51.307Z,2.35
2023-02-01T07:00:55.528Z,2.08
2023-02-01T07:03:58.211Z,2.45
2023-02-01T07:07:01.336Z,2.35
2023-02-01T07:10:04.048Z,1.90
2023-02-01T07:13:06.612Z,1.90
2023-02-01T07:16:13.950Z,3.53
2023-02-01T07:19:17.004Z,4.03
2023-02-01T07:22:20.107Z,4.60
2023-02-01T07:25:22.938Z,1.90
2023-02-01T07:28:26.190Z,1.62
2023-02-01T07:31:30.251Z,2.30
2023-02-01T07:34:34.228Z,2.15
2023-02-01T07:37:37.109Z,2.00
2023-02-01T07:40:40.171Z,2.20
2023-02-01T07:43:42.766Z,1.77
2023-02-01T07:46:45.518Z,2.22
2023-02-01T07:49:48.261Z,2.40
2023-02-01T07:52:51.243Z,2.12
2023-02-01T07:55:54.864Z,2.50
2023-02-01T07:58:57.452Z,2.15
2023-02-01T08:02:00.143Z,2.90
2023-02-01T08:05:02.758Z,6.30
2023-02-01T08:08:05.711Z,3.45
2023-02-01T08:11:08.243Z,2.28
2023-02-01T08:14:11.167Z,1.98
2023-02-01T08:17:14.390Z,1.90
2023-02-01T08:20:17.747Z,1.50
2023-02-01T08:23:21.211Z,1.95
2023-02-01T08:26:25.316Z,2.03
2023-02-01T08:29:28.029Z,1.80
2023-02-01T08:32:30.600Z,1.80
2023-02-01T08:35:42.793Z,1.60
2023-02-01T08:38:46.658Z,1.60
2023-02-01T08:42:09.159Z,1.83
2023-02-01T08:45:11.820Z,1.83
2023-02-01T08:48:33.154Z,1.75
2023-02-01T08:51:38.199Z,1.70
2023-02-01T08:54:42.190Z,1.35
2023-02-01T08:57:44.818Z,1.30
2023-02-01T09:00:49.150Z,1.70
2023-02-01T09:03:51.698Z,1.55
2023-02-01T09:06:56.656Z,1.80
2023-02-01T09:10:02.416Z,2.00
2023-02-01T09:13:05.307Z,1.67
2023-02-01T09:16:08.006Z,2.15
2023-02-01T09:19:27.246Z,1.83
2023-02-01T09:22:29.997Z,1.55
2023-02-01T09:25:32.559Z,1.83
2023-02-01T09:28:35.063Z,2.22
2023-02-01T09:31:39.964Z,2.00
2023-02-01T09:34:42.711Z,2.45
2023-02-01T09:37:45.359Z,2.25
2023-02-01T09:40:48.051Z,2.55
2023-02-01T09:44:19.810Z,2.62
2023-02-01T09:47:23.708Z,2.40
2023-02-01T09:50:38.478Z,2.17
2023-02-01T09:53:43.403Z,2.30
2023-02-01T09:57:23.730Z,2.30
2023-02-01T10:00:36.472Z,7.45
2023-02-01T10:03:40.680Z,5.90
2023-02-01T10:06:56.292Z,2.20
2023-02-01T10:10:06.374Z,1.25
2023-02-01T10:13:27.823Z,1.70
2023-02-01T10:16:38.416Z,1.67
2023-02-01T10:20:29.214Z,1.52
2023-02-01T10:24:16.830Z,1.42
2023-02-01T10:27:44.004Z,1.70
2023-02-01T10:30:47.841Z,1.62
2023-02-01T10:34:07.522Z,1.80
2023-02-01T10:37:22.654Z,2.05
2023-02-01T10:40:27.029Z,1.73
2023-02-01T10:43:29.822Z,1.50
2023-02-01T10:46:33.127Z,2.45
2023-02-01T10:49:58.543Z,3.00
2023-02-01T10:53:23.201Z,3.50
2023-02-01T10:56:27.187Z,3.25
2023-02-01T10:59:30.494Z,3.70
2023-02-01T11:02:34.472Z,3.78
2023-02-01T11:05:46.806Z,3.72
2023-02-01T11:08:51.253Z,3.62
2023-02-01T11:11:58.327Z,4.73
2023-02-01T11:15:13.661Z,4.47
2023-02-01T11:18:18.625Z,5.57
2023-02-01T11:21:21.220Z,5.07
2023-02-01T11:24:32.861Z,3.83
2023-02-01T11:27:40.290Z,3.12
2023-02-01T11:30:46.957Z,3.20
2023-02-01T11:33:55.339Z,3.60
2023-02-01T11:37:02.535Z,3.45
2023-02-01T11:40:17.510Z,3.60
2023-02-01T11:43:28.407Z,3.37
2023-02-01T11:46:35.347Z,3.00
2023-02-01T11:49:40.372Z,3.92
2023-02-01T11:53:09.093Z,11.07
2023-02-01T11:56:21.539Z,9.40
2023-02-01T11:59:56.308Z,5.97
2023-02-01T12:03:06.745Z,3.35
2023-02-01T12:06:58.293Z,2.87
2023-02-01T12:10:40.476Z,3.03
2023-02-01T12:13:53.570Z,2.83
2023-02-01T12:17:20.509Z,6.03
2023-02-01T12:20:27.902Z,6.57
2023-02-01T12:23:50.538Z,5.78
2023-02-01T12:27:17.884Z,8.55
2023-02-01T12:30:27.130Z,6.78
2023-02-01T12:33:48.527Z,3.50
2023-02-01T12:36:53.891Z,3.53
2023-02-01T12:43:22.680Z,4.53
2023-02-01T12:46:30.548Z,4.70
2023-02-01T12:49:45.771Z,4.62
2023-02-01T12:52:52.711Z,3.58
2023-02-01T12:56:00.470Z,4.90
2023-02-01T12:59:05.710Z,6.20
2023-02-01T13:05:46.495Z,4.90
2023-02-01T13:09:04.725Z,3.05
2023-02-01T13:12:41.588Z,4.05
2023-02-01T13:15:47.752Z,6.68
2023-02-01T13:18:51.019Z,7.03
2023-02-01T13:22:00.623Z,5.30
2023-02-01T13:25:06.024Z,5.30
2023-02-01T13:28:13.207Z,5.18
2023-02-01T13:31:40.709Z,4.78
2023-02-01T13:35:13.167Z,5.07
2023-02-01T13:38:32.381Z,5.82
2023-02-01T13:41:57.955Z,6.20
2023-02-01T13:45:14.629Z,4.40
2023-02-01T13:48:39.718Z,4.30
2023-02-01T13:51:43.849Z,5.43
2023-02-01T13:54:46.397Z,6.20
2023-02-01T13:57:50.514Z,12.60
2023-02-01T14:00:53.211Z,5.57
2023-02-01T14:04:03.499Z,4.60
2023-02-01T14:07:20.168Z,5.35
2023-02-01T14:10:58.009Z,4.87
2023-02-01T14:14:28.059Z,3.12
2023-02-01T14:17:31.577Z,2.75
2023-02-01T14:20:46.510Z,3.30
2023-02-01T14:24:02.343Z,3.37
2023-02-01T14:30:18.146Z,4.12
2023-02-01T14:33:25.325Z,3.42
2023-02-01T14:36:27.941Z,3.03
2023-02-01T14:39:34.546Z,3.55
2023-02-01T14:42:43.273Z,3.08
2023-02-01T14:45:51.266Z,3.83
2023-02-01T14:48:53.960Z,3.55
2023-02-01T14:51:57.294Z,4.15
2023-02-01T14:55:03.302Z,4.80
2023-02-01T14:58:17.848Z,2.50
2023-02-01T15:01:31.647Z,3.05
2023-02-01T15:04:43.210Z,2.80
2023-02-01T15:07:45.754Z,2.78
2023-02-01T15:10:49.452Z,4.53
2023-02-01T15:13:55.040Z,4.57
2023-02-01T15:16:58.495Z,6.53
2023-02-01T15:20:17.104Z,5.35
2023-02-01T15:23:21.556Z,5.57
2023-02-01T15:26:31.892Z,6.55
2023-02-01T15:29:35.184Z,6.65
2023-02-01T15:32:40.295Z,9.82
2023-02-01T15:35:47.775Z,9.07
2023-02-01T15:38:50.519Z,7.32
2023-02-01T15:42:02.001Z,6.70
2023-02-01T15:45:04.860Z,9.40
2023-02-01T15:48:12.855Z,7.68
2023-02-01T15:51:20.661Z,5.95
2023-02-01T15:54:50.211Z,6.32
2023-02-01T15:57:52.866Z,4.05
2023-02-01T16:00:58.537Z,3.78
2023-02-01T16:04:24.243Z,3.33
2023-02-01T16:07:28.700Z,3.78
2023-02-01T16:10:31.462Z,5.77
2023-02-01T16:13:34.005Z,4.75
2023-02-01T16:16:37.245Z,3.15
2023-02-01T16:19:39.784Z,3.83
